Terminal Aerodrome Forecast
Issued by NWS

Home | Current Version | Previous Version | Text Only | Print | Product List | Glossary On
Versions: 1 2 3 4 5 6 7 8 9 10 11 12 13 14
000
FTUS43 KJKL 030538
TAFSME
TAF
KSME 030538Z 0306/0406 00000KT P6SM FEW250
     FM030800 00000KT P6SM SCT030
     FM031100 00000KT P6SM BKN025
     FM031600 00000KT P6SM SCT025 BKN100
     FM040300 00000KT P6SM OVC080=

USA.gov is the U.S. government's official web portal to all federal, state and local government web resources and services.